Time;durP1;ratioP1;P1;durP2;ratioP2;P2;SDS_P1;SDS_P2;PMS_P1;PMS_P2;Temp;Humidity;BMP_temperature;BMP_pressure;BME280_temperature;BME280_humidity;BME280_pressure;Samples;Min_cycle;Max_cycle;Signal;HPM_P1;HPM_P2
2022/11/04 00:01:19;;;;;;;3.33;1.30;;;11.80;99.90;;;;;;5063904;28;20380;-70
2022/11/04 00:03:45;;;;;;;2.92;1.48;;;11.70;99.90;;;;;;5083028;28;20380;-70
2022/11/04 00:06:10;;;;;;;3.33;1.50;;;11.60;99.90;;;;;;5081318;28;20040;-70
2022/11/04 00:08:36;;;;;;;3.67;1.42;;;11.70;99.90;;;;;;5082396;28;20024;-70
2022/11/04 00:13:46;;;;;;;3.25;1.85;;;11.60;99.90;;;;;;5079127;28;20124;-70
2022/11/04 00:18:59;;;;;;;3.38;1.42;;;11.60;99.90;;;;;;5081759;28;20058;-69
2022/11/04 00:29:42;;;;;;;2.30;1.70;;;11.60;99.90;;;;;;5077800;28;20090;-70
2022/11/04 00:34:52;;;;;;;3.20;1.67;;;11.60;99.90;;;;;;5080562;28;20302;-70
2022/11/04 00:37:17;;;;;;;2.35;1.63;;;11.70;99.90;;;;;;5082625;28;20032;-70
2022/11/04 00:39:43;;;;;;;4.10;1.85;;;11.60;99.90;;;;;;5081488;28;20032;-70
2022/11/04 00:42:08;;;;;;;2.15;1.95;;;11.60;99.90;;;;;;5081286;28;20371;-70
2022/11/04 00:44:34;;;;;;;2.75;2.40;;;11.60;99.90;;;;;;5080132;28;20047;-70
2022/11/04 00:47:00;;;;;;;4.82;2.60;;;11.60;99.90;;;;;;5079781;28;20028;-70
2022/11/04 00:49:25;;;;;;;3.80;2.90;;;11.60;99.90;;;;;;5078767;28;20041;-69
2022/11/04 00:51:51;;;;;;;6.15;2.90;;;11.60;99.90;;;;;;5082369;28;20109;-69
2022/11/04 00:54:16;;;;;;;4.20;3.13;;;11.70;99.90;;;;;;5078589;28;20071;-70
2022/11/04 00:56:42;;;;;;;4.90;2.88;;;11.70;99.90;;;;;;5080856;28;20415;-70
2022/11/04 00:59:09;;;;;;;2.75;2.47;;;11.70;99.90;;;;;;5060320;28;20414;-70
2022/11/04 01:01:34;;;;;;;4.05;2.80;;;11.70;99.90;;;;;;5079909;28;20162;-69
2022/11/04 01:04:00;;;;;;;3.92;3.10;;;11.70;99.90;;;;;;5079946;28;20115;-70
2022/11/04 01:06:26;;;;;;;7.70;3.47;;;11.70;99.90;;;;;;5079956;28;20035;-70
2022/11/04 01:09:00;;;;;;;6.90;3.30;;;11.80;99.90;;;;;;5080012;28;20040;-70
2022/11/04 01:11:30;;;;;;;3.45;3.15;;;11.70;99.90;;;;;;5080698;28;20398;-70
2022/11/04 01:13:56;;;;;;;5.20;3.40;;;11.60;99.90;;;;;;5062985;28;20498;-69
2022/11/04 01:16:23;;;;;;;7.57;3.33;;;11.60;99.90;;;;;;5080522;28;20061;-70
2022/11/04 01:18:48;;;;;;;4.72;3.05;;;11.50;99.90;;;;;;5061376;28;20581;-69
2022/11/04 01:21:15;;;;;;;4.93;3.08;;;11.60;99.90;;;;;;5078932;28;20049;-70
2022/11/04 01:23:43;;;;;;;4.55;3.22;;;11.50;99.90;;;;;;5065350;28;20632;-70
2022/11/04 01:26:12;;;;;;;4.97;3.72;;;11.60;99.90;;;;;;5081266;28;20020;-70
2022/11/04 01:28:38;;;;;;;5.60;3.55;;;11.60;99.90;;;;;;5081537;28;20499;-69
2022/11/04 01:31:13;;;;;;;5.45;3.40;;;11.40;99.90;;;;;;5081125;28;20043;-69
2022/11/04 01:33:39;;;;;;;5.55;3.30;;;11.50;99.90;;;;;;5063049;28;20483;-69
2022/11/04 01:36:06;;;;;;;6.28;3.45;;;11.50;99.90;;;;;;5062185;28;20028;-69
2022/11/04 01:38:32;;;;;;;5.50;3.58;;;11.50;99.90;;;;;;5080725;28;20116;-70
2022/11/04 01:40:58;;;;;;;6.30;3.10;;;11.50;99.90;;;;;;5061203;28;20134;-70
2022/11/04 01:43:47;;;;;;;6.90;3.50;;;11.50;99.90;;;;;;5080658;28;20639;-70
2022/11/04 01:46:37;;;;;;;7.20;3.47;;;11.60;99.90;;;;;;5077167;28;20040;-70
2022/11/04 01:49:25;;;;;;;7.47;3.65;;;11.50;99.90;;;;;;5080583;28;20032;-69
2022/11/04 01:51:56;;;;;;;4.68;3.22;;;11.50;99.90;;;;;;5079617;28;20024;-69
2022/11/04 01:54:22;;;;;;;7.32;3.03;;;11.30;99.90;;;;;;5080294;28;20040;-70
2022/11/04 01:56:48;;;;;;;6.97;3.60;;;11.30;99.90;;;;;;5081895;28;20024;-69
2022/11/04 01:59:23;;;;;;;5.85;3.00;;;11.30;99.90;;;;;;5080060;28;20029;-69
2022/11/04 02:01:48;;;;;;;7.25;3.42;;;11.30;99.90;;;;;;5079609;28;20090;-69
2022/11/04 02:04:26;;;;;;;5.90;3.22;;;11.30;99.90;;;;;;5080468;28;20467;-69
2022/11/04 02:06:55;;;;;;;4.60;3.15;;;11.30;99.90;;;;;;5078051;28;20127;-69
2022/11/04 02:09:23;;;;;;;6.68;3.20;;;11.20;99.90;;;;;;5079189;28;20062;-69
2022/11/04 02:14:33;;;;;;;6.40;3.38;;;11.30;99.90;;;;;;5079701;28;20043;-69
2022/11/04 02:17:10;;;;;;;9.15;3.35;;;11.10;99.90;;;;;;5081219;28;20119;-69
2022/11/04 02:19:55;;;;;;;5.65;3.60;;;11.00;99.90;;;;;;5080227;28;20028;-69
2022/11/04 02:22:42;;;;;;;6.65;3.60;;;11.00;99.90;;;;;;5079992;28;20044;-69
2022/11/04 02:25:37;;;;;;;5.90;2.95;;;11.10;99.90;;;;;;5061488;28;20535;-69
2022/11/04 02:28:21;;;;;;;7.22;3.05;;;11.00;99.90;;;;;;5079532;28;20518;-69
2022/11/04 02:31:13;;;;;;;6.28;3.30;;;10.70;99.90;;;;;;5076507;28;20032;-69
2022/11/04 02:33:42;;;;;;;8.63;2.92;;;10.60;99.90;;;;;;5060793;28;20032;-69
2022/11/04 02:36:13;;;;;;;8.98;3.10;;;10.30;99.90;;;;;;5080944;28;20054;-69
2022/11/04 02:38:52;;;;;;;6.32;2.72;;;10.40;99.90;;;;;;5080960;28;20035;-69
2022/11/04 02:41:39;;;;;;;4.85;2.75;;;10.40;99.90;;;;;;5076880;28;20047;-69
2022/11/04 02:44:14;;;;;;;5.30;2.70;;;10.50;99.90;;;;;;5059808;28;20035;-69
2022/11/04 02:46:51;;;;;;;8.43;2.67;;;10.50;99.90;;;;;;5075070;28;20040;-69
2022/11/04 02:49:30;;;;;;;9.43;2.83;;;10.50;99.90;;;;;;5061271;28;20048;-69
2022/11/04 02:52:03;;;;;;;4.38;2.05;;;10.40;99.90;;;;;;5078944;28;20028;-69
2022/11/04 02:54:37;;;;;;;4.65;2.72;;;10.50;99.90;;;;;;5061607;28;20391;-69
2022/11/04 02:57:07;;;;;;;7.15;2.33;;;10.60;99.90;;;;;;5058338;28;20039;-69
2022/11/04 02:59:36;;;;;;;8.35;2.75;;;10.70;99.90;;;;;;5077033;28;20032;-69
2022/11/04 03:02:06;;;;;;;7.97;2.30;;;10.70;99.90;;;;;;5078880;28;20522;-69
2022/11/04 03:04:36;;;;;;;7.40;2.22;;;10.50;99.90;;;;;;5061443;28;20111;-69
2022/11/04 03:07:04;;;;;;;8.10;2.30;;;10.70;99.90;;;;;;5059790;28;20055;-68
2022/11/04 03:09:31;;;;;;;7.40;2.30;;;10.30;99.90;;;;;;5077754;28;20055;-69
2022/11/04 03:12:02;;;;;;;8.38;2.42;;;10.40;99.90;;;;;;5060374;28;20456;-69
2022/11/04 03:14:38;;;;;;;5.18;2.17;;;10.30;99.90;;;;;;5079063;28;20054;-69
2022/11/04 03:17:12;;;;;;;8.63;2.40;;;10.60;99.90;;;;;;5081173;28;20028;-69
2022/11/04 03:19:50;;;;;;;3.17;2.00;;;10.70;99.90;;;;;;5082728;28;20125;-69
2022/11/04 03:22:19;;;;;;;6.35;2.00;;;10.60;99.90;;;;;;5058347;28;20044;-69
2022/11/04 03:24:47;;;;;;;5.55;2.08;;;10.30;99.90;;;;;;5082936;28;20028;-69
2022/11/04 03:27:32;;;;;;;8.13;2.00;;;10.50;99.90;;;;;;5082055;28;20044;-69
2022/11/04 03:30:23;;;;;;;5.45;2.58;;;10.50;99.90;;;;;;5061990;28;20585;-69
2022/11/04 03:33:03;;;;;;;6.38;1.80;;;10.40;99.90;;;;;;5079375;28;20036;-69
2022/11/04 03:35:29;;;;;;;9.93;2.25;;;10.20;99.90;;;;;;5083885;28;20035;-70
2022/11/04 03:37:55;;;;;;;4.65;1.75;;;10.10;99.90;;;;;;5083786;28;20499;-69
2022/11/04 03:40:21;;;;;;;5.22;1.98;;;10.10;99.90;;;;;;5081324;28;20150;-69
2022/11/04 03:43:21;;;;;;;8.75;1.90;;;9.90;99.90;;;;;;5083563;28;20047;-69
2022/11/04 03:45:47;;;;;;;7.75;2.00;;;9.70;99.90;;;;;;5060976;28;20032;-70
2022/11/04 03:48:13;;;;;;;7.07;1.90;;;9.80;99.90;;;;;;5086562;28;20542;-70
2022/11/04 03:50:46;;;;;;;9.70;2.00;;;9.70;99.90;;;;;;5086410;28;20119;-70
2022/11/04 03:53:12;;;;;;;12.07;2.20;;;10.00;99.90;;;;;;5084513;28;20628;-70
2022/11/04 03:55:50;;;;;;;7.43;1.75;;;10.20;99.90;;;;;;5085838;28;20036;-70
2022/11/04 03:58:29;;;;;;;6.32;1.90;;;10.40;99.90;;;;;;5051936;28;20048;-70
2022/11/04 04:01:36;;;;;;;6.47;1.85;;;10.40;99.90;;;;;;5068910;28;20558;-70
2022/11/04 04:04:04;;;;;;;6.60;1.90;;;10.50;99.90;;;;;;5036910;28;20043;-70
2022/11/04 04:06:35;;;;;;;5.07;1.70;;;10.40;99.90;;;;;;5069200;28;20036;-70
2022/11/04 04:09:44;;;;;;;8.02;2.03;;;10.40;99.90;;;;;;5070298;28;20510;-69
2022/11/04 04:12:41;;;;;;;12.82;2.50;;;10.30;99.90;;;;;;5019780;28;20032;-70
2022/11/04 04:15:20;;;;;;;10.77;2.10;;;10.10;99.90;;;;;;5054300;28;20024;-70
2022/11/04 04:17:51;;;;;;;8.05;1.80;;;9.70;99.90;;;;;;5073145;28;20063;-70
2022/11/04 04:20:25;;;;;;;7.63;1.90;;;9.40;99.90;;;;;;5070865;28;20062;-70
2022/11/04 04:23:00;;;;;;;7.47;1.73;;;9.50;99.90;;;;;;5072563;28;20601;-69
2022/11/04 04:28:15;;;;;;;8.05;2.25;;;9.50;99.90;;;;;;5082202;28;20146;-70
2022/11/04 04:30:42;;;;;;;8.65;2.10;;;9.40;99.90;;;;;;5064888;28;20044;-70
2022/11/04 04:33:12;;;;;;;7.90;1.80;;;9.50;99.90;;;;;;5091437;28;20044;-69
2022/11/04 04:35:53;;;;;;;9.90;2.35;;;9.60;99.90;;;;;;5067315;28;20032;-70
2022/11/04 04:46:52;;;;;;;4.35;1.63;;;9.50;99.90;;;;;;5078023;28;20407;-71
2022/11/04 04:49:17;;;;;;;6.38;1.70;;;9.50;99.90;;;;;;5063032;28;20543;-70
2022/11/04 04:51:46;;;;;;;7.47;1.95;;;9.40;99.90;;;;;;5081299;28;20123;-70
2022/11/04 04:54:12;;;;;;;7.78;2.00;;;9.40;99.90;;;;;;5084114;28;20511;-70
2022/11/04 04:56:38;;;;;;;6.82;2.17;;;9.40;99.90;;;;;;5082326;28;20027;-70
2022/11/04 04:59:04;;;;;;;6.60;2.10;;;9.40;99.90;;;;;;5063746;28;20470;-70
2022/11/04 05:01:30;;;;;;;6.47;2.20;;;9.20;99.90;;;;;;5080412;28;20036;-71
2022/11/04 05:03:56;;;;;;;5.55;1.83;;;9.10;99.90;;;;;;5065174;28;20055;-70
2022/11/04 05:06:21;;;;;;;7.03;2.25;;;9.10;99.90;;;;;;5081265;28;20468;-70
2022/11/04 05:08:47;;;;;;;9.05;2.42;;;9.00;99.90;;;;;;5084795;28;20499;-70
2022/11/04 05:11:12;;;;;;;7.50;1.92;;;8.90;99.90;;;;;;5082012;28;20043;-70
2022/11/04 05:13:38;;;;;;;10.18;1.90;;;8.90;99.90;;;;;;5087336;28;20218;-70
2022/11/04 05:16:06;;;;;;;7.70;2.30;;;8.80;99.90;;;;;;5066260;28;20112;-71
2022/11/04 05:18:32;;;;;;;5.97;2.08;;;8.80;99.90;;;;;;5064829;28;20116;-70
2022/11/04 05:20:58;;;;;;;9.02;2.00;;;8.80;99.90;;;;;;5080618;28;20035;-71
2022/11/04 05:23:23;;;;;;;7.43;1.67;;;8.80;99.90;;;;;;5081464;28;20106;-71
2022/11/04 05:25:49;;;;;;;12.82;2.22;;;8.80;99.90;;;;;;5060425;28;20415;-71
2022/11/04 05:28:14;;;;;;;6.45;2.05;;;8.80;99.90;;;;;;5089410;28;20032;-71
2022/11/04 05:30:40;;;;;;;7.70;1.77;;;8.80;99.90;;;;;;5075710;28;20348;-70
2022/11/04 05:33:06;;;;;;;8.60;2.03;;;8.80;99.90;;;;;;5085421;28;20028;-70
2022/11/04 05:35:32;;;;;;;6.70;2.13;;;8.90;99.90;;;;;;5080977;28;20028;-70
2022/11/04 05:37:58;;;;;;;7.55;2.30;;;8.90;99.90;;;;;;5081081;28;20147;-70
2022/11/04 05:40:24;;;;;;;8.85;2.25;;;8.90;99.90;;;;;;5062378;28;20130;-70
2022/11/04 05:42:49;;;;;;;9.48;1.77;;;9.00;99.90;;;;;;5063268;28;20078;-70
2022/11/04 05:45:15;;;;;;;6.53;1.80;;;9.00;99.90;;;;;;5086353;28;20070;-70
2022/11/04 05:47:41;;;;;;;9.40;1.88;;;8.90;99.90;;;;;;5080900;28;20028;-70
2022/11/04 05:50:07;;;;;;;7.70;2.00;;;8.80;99.90;;;;;;5088139;28;20039;-71
2022/11/04 05:52:32;;;;;;;5.82;1.95;;;8.90;99.90;;;;;;5079853;28;20190;-71
2022/11/04 05:54:58;;;;;;;6.53;1.58;;;8.90;99.90;;;;;;5082851;28;20040;-70
2022/11/04 05:57:23;;;;;;;4.38;1.55;;;8.90;99.90;;;;;;5081275;28;20398;-71
2022/11/04 05:59:49;;;;;;;9.10;2.08;;;8.90;99.90;;;;;;5084570;28;20453;-70
2022/11/04 06:02:15;;;;;;;8.00;1.90;;;8.90;99.90;;;;;;5081612;28;20147;-70
2022/11/04 06:04:40;;;;;;;7.65;1.65;;;8.90;99.90;;;;;;5081477;28;20126;-70
2022/11/04 06:07:06;;;;;;;7.72;1.65;;;8.90;99.90;;;;;;5067643;28;20071;-70
2022/11/04 06:09:38;;;;;;;8.70;2.13;;;8.90;99.90;;;;;;5079187;28;20047;-70
2022/11/04 06:12:15;;;;;;;7.05;1.75;;;8.80;99.90;;;;;;5079302;28;20688;-71
2022/11/04 06:14:43;;;;;;;5.68;1.65;;;8.80;99.90;;;;;;5083826;28;20131;-70
2022/11/04 06:17:17;;;;;;;10.43;1.80;;;8.90;99.90;;;;;;5067631;28;20055;-70
2022/11/04 06:19:42;;;;;;;;;;;9.00;99.90;;;;;;5063069;28;20032;-71
2022/11/04 06:22:11;;;;;;;5.85;1.58;;;9.00;99.90;;;;;;5079735;28;19934;-70
2022/11/04 06:24:36;;;;;;;8.52;1.92;;;9.00;99.90;;;;;;5061902;28;20035;-70
2022/11/04 06:27:02;;;;;;;5.88;2.00;;;9.00;99.90;;;;;;5090705;28;20025;-69
2022/11/04 06:29:28;;;;;;;7.72;1.85;;;9.00;99.90;;;;;;5086153;28;20031;-70
2022/11/04 06:31:53;;;;;;;6.65;1.95;;;9.00;99.90;;;;;;5082702;28;20571;-69
2022/11/04 06:34:19;;;;;;;8.10;1.92;;;9.00;99.90;;;;;;5065393;28;20032;-70
2022/11/04 06:36:45;;;;;;;7.45;2.05;;;9.10;99.90;;;;;;5086078;28;20039;-70
2022/11/04 06:39:10;;;;;;;7.90;1.88;;;9.10;99.90;;;;;;5062204;28;20029;-70
2022/11/04 06:41:36;;;;;;;8.02;1.83;;;9.10;99.90;;;;;;5080700;28;20091;-70
2022/11/04 06:44:01;;;;;;;8.48;2.05;;;9.10;99.90;;;;;;5082950;28;20047;-71
2022/11/04 06:46:37;;;;;;;9.18;2.05;;;9.10;99.90;;;;;;5079119;28;20055;-71
2022/11/04 06:49:03;;;;;;;7.32;1.98;;;9.20;99.90;;;;;;5068759;28;20107;-69
2022/11/04 06:51:29;;;;;;;7.95;2.13;;;9.20;99.90;;;;;;5083871;28;20044;-70
2022/11/04 06:53:55;;;;;;;8.02;2.08;;;9.20;99.90;;;;;;5084340;28;20058;-70
2022/11/04 06:56:20;;;;;;;6.28;1.92;;;9.20;99.90;;;;;;5091720;28;20109;-70
2022/11/04 06:58:47;;;;;;;6.53;1.90;;;9.20;99.90;;;;;;5087811;28;20126;-69
2022/11/04 07:01:14;;;;;;;7.95;2.25;;;9.30;99.90;;;;;;5084845;28;20112;-70
2022/11/04 07:03:39;;;;;;;8.32;2.15;;;9.40;99.90;;;;;;5082450;28;20078;-70
2022/11/04 07:06:07;;;;;;;9.18;2.60;;;9.40;99.90;;;;;;5067974;28;20059;-70
2022/11/04 07:08:32;;;;;;;6.97;2.50;;;9.50;99.90;;;;;;5084834;28;20488;-70
2022/11/04 07:10:58;;;;;;;9.88;2.33;;;9.50;99.90;;;;;;5091078;28;20028;-70
2022/11/04 07:13:23;;;;;;;11.05;2.60;;;9.50;99.90;;;;;;5085672;28;20029;-70
2022/11/04 07:15:49;;;;;;;11.65;2.72;;;9.60;99.90;;;;;;5085705;28;20070;-69
2022/11/04 07:18:14;;;;;;;12.15;3.63;;;9.70;99.90;;;;;;5082720;28;20441;-70
2022/11/04 07:20:40;;;;;;;13.57;3.78;;;9.80;99.90;;;;;;5080171;28;20645;-70
2022/11/04 07:23:05;;;;;;;10.20;2.80;;;9.80;99.90;;;;;;5086044;28;20040;-69
2022/11/04 07:25:31;;;;;;;21.83;6.05;;;9.80;99.90;;;;;;5081136;28;20146;-70
2022/11/04 07:27:56;;;;;;;15.68;4.40;;;10.00;99.90;;;;;;5064975;28;20047;-65
2022/11/04 07:30:22;;;;;;;11.35;3.95;;;9.90;99.90;;;;;;5080965;28;20425;-65
2022/11/04 07:32:48;;;;;;;11.90;3.78;;;9.90;99.90;;;;;;5086482;28;20028;-65
2022/11/04 07:35:14;;;;;;;13.40;3.97;;;9.90;99.90;;;;;;5086781;28;20040;-65
2022/11/04 07:37:39;;;;;;;16.27;4.57;;;9.80;99.90;;;;;;5079244;28;20066;-65
2022/11/04 07:40:06;;;;;;;11.30;3.78;;;9.80;99.90;;;;;;5078650;28;20024;-65
2022/11/04 07:42:31;;;;;;;11.65;3.42;;;10.00;99.90;;;;;;5075641;28;20048;-65
2022/11/04 07:44:57;;;;;;;11.30;3.50;;;10.00;99.90;;;;;;5081455;28;20051;-65
2022/11/04 07:47:22;;;;;;;10.05;3.30;;;10.10;99.90;;;;;;5079529;28;20093;-66
2022/11/04 07:49:48;;;;;;;15.65;4.38;;;10.20;99.90;;;;;;5073528;28;20039;-65
2022/11/04 07:52:13;;;;;;;13.77;3.50;;;10.10;99.90;;;;;;5081201;28;20064;-65
2022/11/04 07:54:39;;;;;;;9.48;3.15;;;10.20;99.90;;;;;;5081010;28;20109;-65
2022/11/04 07:57:04;;;;;;;13.88;3.40;;;10.30;99.90;;;;;;5082320;28;20032;-65
2022/11/04 07:59:30;;;;;;;16.40;9.38;;;10.30;99.90;;;;;;5075105;28;20039;-65
2022/11/04 08:01:56;;;;;;;12.43;3.55;;;10.30;99.90;;;;;;5080138;28;20871;-65
2022/11/04 08:04:21;;;;;;;11.77;3.17;;;10.30;99.90;;;;;;5083603;28;20379;-65
2022/11/04 08:06:47;;;;;;;10.48;3.00;;;10.40;99.90;;;;;;5083028;28;20151;-65
2022/11/04 08:09:12;;;;;;;9.10;3.17;;;10.50;99.90;;;;;;5056731;28;20042;-65
2022/11/04 08:11:38;;;;;;;10.43;3.33;;;10.60;99.90;;;;;;5083715;28;20126;-65
2022/11/04 08:14:04;;;;;;;12.65;3.20;;;10.50;99.90;;;;;;5082813;28;20028;-66
2022/11/04 08:16:30;;;;;;;9.00;3.38;;;10.60;99.90;;;;;;5074514;28;20032;-65
2022/11/04 08:19:01;;;;;;;8.57;3.20;;;10.70;99.90;;;;;;5080597;28;20698;-64
2022/11/04 08:21:28;;;;;;;13.18;4.70;;;10.70;99.90;;;;;;5058962;28;20101;-65
2022/11/04 08:23:54;;;;;;;8.27;3.22;;;10.70;99.90;;;;;;5075316;28;20108;-64
2022/11/04 08:26:22;;;;;;;10.68;4.05;;;10.70;99.90;;;;;;5078460;28;20074;-63
2022/11/04 08:28:48;;;;;;;14.93;3.38;;;10.80;99.90;;;;;;5076799;28;20028;-65
2022/11/04 08:31:17;;;;;;;10.93;3.30;;;10.80;99.90;;;;;;5075461;28;20142;-65
2022/11/04 08:33:44;;;;;;;11.85;3.90;;;10.80;99.90;;;;;;5062536;28;20028;-64
2022/11/04 08:36:15;;;;;;;15.18;4.00;;;10.80;99.90;;;;;;5081375;28;20043;-65
2022/11/04 08:38:41;;;;;;;10.43;3.60;;;10.80;99.90;;;;;;5083165;28;20434;-64
2022/11/04 08:41:08;;;;;;;13.02;3.83;;;10.80;99.90;;;;;;5076161;28;20083;-64
2022/11/04 08:43:34;;;;;;;10.15;3.17;;;10.80;99.90;;;;;;5080847;28;20103;-65
2022/11/04 08:46:02;;;;;;;10.30;3.90;;;11.10;99.90;;;;;;5073642;28;20024;-64
2022/11/04 08:48:28;;;;;;;13.95;4.40;;;11.20;99.90;;;;;;5080827;28;20038;-64
2022/11/04 08:50:57;;;;;;;8.05;4.20;;;11.20;99.90;;;;;;5078155;28;20044;-65
2022/11/04 08:53:24;;;;;;;16.30;4.00;;;11.40;99.90;;;;;;5059243;28;20499;-64
2022/11/04 08:55:50;;;;;;;17.17;4.50;;;11.40;99.90;;;;;;5077449;28;20198;-64
2022/11/04 08:58:16;;;;;;;12.85;4.43;;;11.10;99.90;;;;;;5061690;28;20479;-65
2022/11/04 09:00:42;;;;;;;13.25;4.18;;;11.20;99.90;;;;;;5076939;28;20029;-64
2022/11/04 09:03:07;;;;;;;11.25;3.67;;;11.30;99.90;;;;;;5074218;28;20044;-64
2022/11/04 09:05:40;;;;;;;18.45;4.72;;;11.40;99.90;;;;;;5080623;28;20127;-65
2022/11/04 09:08:05;;;;;;;11.53;4.27;;;11.30;99.90;;;;;;5061473;28;20028;-65
2022/11/04 09:10:31;;;;;;;12.93;4.20;;;11.40;99.90;;;;;;5078500;28;20040;-64
2022/11/04 09:12:56;;;;;;;9.02;3.83;;;11.60;99.90;;;;;;5076045;28;20070;-64
2022/11/04 09:15:22;;;;;;;12.00;3.75;;;11.70;99.90;;;;;;5078329;28;20116;-65
2022/11/04 09:17:47;;;;;;;11.68;3.67;;;11.80;99.90;;;;;;5075090;28;20035;-65
2022/11/04 09:20:13;;;;;;;11.27;3.95;;;11.90;99.90;;;;;;5078947;28;20040;-65
2022/11/04 09:22:39;;;;;;;12.70;6.13;;;12.00;99.90;;;;;;5081275;28;20111;-65
2022/11/04 09:25:04;;;;;;;18.55;10.25;;;12.00;99.90;;;;;;5076461;28;20111;-66
2022/11/04 09:27:30;;;;;;;8.02;3.70;;;12.10;99.90;;;;;;5060147;28;20052;-65
2022/11/04 09:29:55;;;;;;;10.40;3.97;;;12.20;99.90;;;;;;5079191;28;20028;-65
2022/11/04 09:32:21;;;;;;;9.48;3.45;;;12.10;99.90;;;;;;5071284;28;20463;-65
2022/11/04 09:34:46;;;;;;;9.82;3.80;;;12.20;99.90;;;;;;5059107;28;20471;-65
2022/11/04 09:37:12;;;;;;;12.18;4.22;;;12.10;99.90;;;;;;5056187;28;20130;-65
2022/11/04 09:39:38;;;;;;;14.00;4.00;;;12.10;99.90;;;;;;5058896;28;20037;-65
2022/11/04 09:42:09;;;;;;;11.57;3.35;;;12.20;99.90;;;;;;5057082;28;20040;-65
2022/11/04 09:44:52;;;;;;;9.00;3.65;;;12.10;99.90;;;;;;5052446;28;20037;-65
2022/11/04 09:47:21;;;;;;;13.23;3.67;;;12.10;99.90;;;;;;5049511;28;20033;-65
2022/11/04 09:49:49;;;;;;;11.27;3.90;;;12.20;99.90;;;;;;5046442;28;20040;-65
2022/11/04 09:52:23;;;;;;;10.95;3.58;;;12.20;99.90;;;;;;5055098;28;20389;-65
2022/11/04 09:55:11;;;;;;;14.90;3.67;;;12.10;99.90;;;;;;5034324;28;20645;-65
2022/11/04 09:57:36;;;;;;;7.65;2.88;;;12.20;99.90;;;;;;5077716;28;20043;-66
2022/11/04 10:00:03;;;;;;;14.38;3.67;;;12.20;99.90;;;;;;5074969;28;20041;-65
2022/11/04 10:02:53;;;;;;;9.95;3.00;;;12.30;99.90;;;;;;5057576;28;20656;-66
2022/11/04 10:05:43;;;;;;;6.38;2.88;;;12.10;99.90;;;;;;5061748;28;20065;-65
2022/11/04 10:08:43;;;;;;;11.57;3.45;;;12.30;99.90;;;;;;5079658;28;20391;-65
2022/11/04 10:11:16;;;;;;;9.98;3.70;;;12.20;99.90;;;;;;5082400;28;20039;-65
2022/11/04 10:13:50;;;;;;;8.35;3.13;;;12.50;99.90;;;;;;5060163;28;20535;-66
2022/11/04 10:16:33;;;;;;;11.95;3.03;;;12.40;99.90;;;;;;5076055;28;20047;-65
2022/11/04 10:19:26;;;;;;;12.40;3.40;;;12.60;99.90;;;;;;5065207;28;20178;-66
2022/11/04 10:22:09;;;;;;;9.65;3.30;;;12.60;99.90;;;;;;5071953;28;20579;-66
2022/11/04 10:24:48;;;;;;;;;;;12.70;99.90;;;;;;5081307;28;20145;-66
2022/11/04 10:27:22;;;;;;;10.07;3.20;;;12.70;99.90;;;;;;5060896;28;19916;-66
2022/11/04 10:29:53;;;;;;;10.95;3.55;;;12.70;99.90;;;;;;5090857;27;20062;-66
2022/11/04 10:32:47;;;;;;;12.02;3.38;;;13.30;99.90;;;;;;5064754;28;20123;-66
2022/11/04 10:35:30;;;;;;;12.52;2.65;;;13.20;99.90;;;;;;5086412;28;20874;-66
2022/11/04 10:38:00;;;;;;;11.93;3.10;;;13.20;99.90;;;;;;5083350;28;20024;-66
2022/11/04 10:40:31;;;;;;;8.55;3.25;;;13.10;99.90;;;;;;5086853;28;20024;-66
2022/11/04 10:42:59;;;;;;;9.80;2.55;;;13.20;99.90;;;;;;5089651;28;20039;-66
2022/11/04 10:45:39;;;;;;;12.73;2.60;;;13.20;99.90;;;;;;5086208;28;20519;-66
2022/11/04 10:48:17;;;;;;;8.13;2.63;;;13.10;99.90;;;;;;5082682;28;20028;-66
2022/11/04 10:50:55;;;;;;;6.85;2.20;;;13.30;99.90;;;;;;5063406;28;20056;-66
2022/11/04 10:53:26;;;;;;;7.15;2.33;;;13.00;99.90;;;;;;5082867;28;20056;-66
2022/11/04 10:56:11;;;;;;;12.23;2.83;;;13.20;99.90;;;;;;5083493;28;20640;-66
2022/11/04 10:58:45;;;;;;;9.40;2.85;;;13.20;99.90;;;;;;5082408;28;21431;-66
2022/11/04 11:01:27;;;;;;;7.90;2.72;;;13.40;99.90;;;;;;5076482;28;20036;-66
2022/11/04 11:03:53;;;;;;;8.77;2.35;;;13.30;99.90;;;;;;5080686;28;20369;-66
2022/11/04 11:06:34;;;;;;;8.48;1.80;;;13.50;99.90;;;;;;5082754;28;20074;-66
2022/11/04 11:09:27;;;;;;;8.50;2.13;;;13.40;99.90;;;;;;5074551;28;20035;-66
2022/11/04 11:11:54;;;;;;;8.95;2.75;;;13.40;99.90;;;;;;5083780;28;20149;-66
2022/11/04 11:14:29;;;;;;;8.20;2.25;;;13.20;99.90;;;;;;5086633;28;20043;-66
2022/11/04 11:17:13;;;;;;;8.48;2.38;;;13.40;99.90;;;;;;5062381;28;20451;-66
2022/11/04 11:19:57;;;;;;;7.90;2.35;;;13.50;99.90;;;;;;5082682;28;20040;-66
2022/11/04 11:22:43;;;;;;;11.13;2.28;;;13.40;99.90;;;;;;5082024;28;20039;-66
2022/11/04 11:25:20;;;;;;;10.85;2.60;;;13.40;99.90;;;;;;5084415;28;20461;-66
2022/11/04 11:27:53;;;;;;;7.18;2.03;;;13.50;99.90;;;;;;5063853;28;20655;-67
2022/11/04 11:30:42;;;;;;;8.93;2.60;;;13.50;99.90;;;;;;5063073;28;20113;-66
2022/11/04 11:33:26;;;;;;;8.68;2.20;;;13.50;99.90;;;;;;5076576;28;20101;-66
2022/11/04 11:36:03;;;;;;;12.02;2.35;;;13.70;99.90;;;;;;5082154;28;20035;-66
2022/11/04 11:38:32;;;;;;;10.25;2.90;;;13.60;99.90;;;;;;5077542;28;20507;-66
2022/11/04 11:41:10;;;;;;;8.43;2.33;;;13.70;99.90;;;;;;5078472;28;20036;-66
2022/11/04 11:43:41;;;;;;;8.32;2.40;;;13.70;99.90;;;;;;5059874;28;20479;-66
2022/11/04 11:46:07;;;;;;;9.38;2.17;;;13.50;99.90;;;;;;5055160;28;20037;-66
2022/11/04 11:48:42;;;;;;;9.43;2.70;;;13.50;99.90;;;;;;5060794;28;20094;-66
2022/11/04 11:51:13;;;;;;;8.70;2.92;;;13.50;99.90;;;;;;5059720;28;20052;-66
2022/11/04 11:53:44;;;;;;;8.55;2.60;;;13.40;99.90;;;;;;5054841;28;20144;-66
2022/11/04 11:56:33;;;;;;;12.43;4.18;;;13.50;99.90;;;;;;5059446;28;20054;-66
2022/11/04 11:59:36;;;;;;;18.63;5.28;;;13.60;99.90;;;;;;5055391;28;20057;-66
2022/11/04 12:02:19;;;;;;;9.60;2.88;;;13.20;99.90;;;;;;5059864;28;20066;-66
2022/11/04 12:04:45;;;;;;;11.13;2.53;;;13.30;99.90;;;;;;5062039;28;20590;-66
2022/11/04 12:07:35;;;;;;;11.10;2.28;;;13.50;99.90;;;;;;5053589;28;20112;-66
2022/11/04 12:10:21;;;;;;;9.60;2.60;;;13.60;99.90;;;;;;5058863;28;20067;-66
2022/11/04 12:13:06;;;;;;;14.30;2.70;;;13.60;99.90;;;;;;5052304;28;20020;-66
2022/11/04 12:15:36;;;;;;;8.75;2.70;;;13.70;99.90;;;;;;5055521;28;20059;-66
2022/11/04 12:18:07;;;;;;;9.98;2.67;;;13.70;99.90;;;;;;5057984;28;20700;-66
2022/11/04 12:21:20;;;;;;;6.28;2.38;;;13.50;99.90;;;;;;5058671;28;20077;-66
2022/11/04 12:24:04;;;;;;;13.30;2.60;;;13.50;99.90;;;;;;5060678;28;20546;-66
2022/11/04 12:26:30;;;;;;;8.70;2.60;;;13.50;99.90;;;;;;5075670;28;20029;-66
2022/11/04 12:29:28;;;;;;;8.65;3.05;;;13.40;99.90;;;;;;5074053;28;20024;-66
2022/11/04 12:32:09;;;;;;;10.50;3.72;;;13.60;99.90;;;;;;5077917;28;20043;-66
2022/11/04 12:35:01;;;;;;;10.25;2.88;;;13.20;99.90;;;;;;5076401;28;20122;-66
2022/11/04 12:37:38;;;;;;;11.63;2.85;;;13.20;99.90;;;;;;5080629;28;20752;-66
2022/11/04 12:40:17;;;;;;;8.00;2.80;;;13.20;99.90;;;;;;5077113;28;20040;-66
2022/11/04 12:43:03;;;;;;;7.38;2.50;;;13.30;99.90;;;;;;5078451;28;20040;-66
2022/11/04 12:45:38;;;;;;;8.98;2.97;;;13.10;99.90;;;;;;5074779;28;20074;-66
2022/11/04 12:48:10;;;;;;;8.73;2.53;;;13.20;99.90;;;;;;5076195;28;20654;-66
2022/11/04 12:51:10;;;;;;;10.77;3.00;;;13.30;99.90;;;;;;5078686;28;20031;-66
2022/11/04 12:53:43;;;;;;;9.15;2.70;;;13.40;99.90;;;;;;5070268;28;20055;-66
2022/11/04 12:56:12;;;;;;;10.73;2.83;;;13.20;99.90;;;;;;5078417;28;20527;-66
2022/11/04 12:59:09;;;;;;;11.63;3.03;;;13.30;99.90;;;;;;5078074;28;20516;-66
2022/11/04 13:01:49;;;;;;;13.20;2.65;;;13.40;99.90;;;;;;5076058;28;20052;-66
2022/11/04 13:04:45;;;;;;;12.27;2.67;;;13.50;99.90;;;;;;5072902;28;20036;-66
2022/11/04 13:07:20;;;;;;;8.63;2.67;;;13.60;99.90;;;;;;5077610;28;20486;-66
2022/11/04 13:09:55;;;;;;;10.38;3.03;;;13.70;99.90;;;;;;5077626;28;20174;-66
2022/11/04 13:12:40;;;;;;;7.07;2.72;;;13.50;99.90;;;;;;5077520;28;20039;-66
2022/11/04 13:15:27;;;;;;;8.30;2.60;;;13.40;99.90;;;;;;5077352;28;20036;-66
2022/11/04 13:17:58;;;;;;;12.20;3.08;;;13.60;99.90;;;;;;5078159;28;20031;-66
2022/11/04 13:20:34;;;;;;;12.32;3.10;;;13.60;99.90;;;;;;5074351;28;20132;-66
2022/11/04 13:23:06;;;;;;;11.57;3.58;;;13.60;99.90;;;;;;5071879;28;20395;-66
2022/11/04 13:25:42;;;;;;;12.65;4.05;;;13.40;99.90;;;;;;5071189;28;20055;-57
2022/11/04 13:28:18;;;;;;;14.88;5.03;;;13.70;99.90;;;;;;5076871;28;20040;-65
2022/11/04 13:30:54;;;;;;;10.90;3.47;;;13.80;99.90;;;;;;5075088;28;20035;-66
2022/11/04 13:33:32;;;;;;;15.70;3.83;;;13.60;99.90;;;;;;5072495;28;20044;-66
2022/11/04 13:36:01;;;;;;;11.90;3.33;;;13.40;99.90;;;;;;5076540;28;20036;-65
2022/11/04 13:38:40;;;;;;;12.88;3.10;;;13.30;99.90;;;;;;5072623;28;20048;-66
2022/11/04 13:41:24;;;;;;;12.55;3.20;;;13.10;99.90;;;;;;5076752;28;20474;-66
2022/11/04 13:43:55;;;;;;;;;;;13.10;99.90;;;;;;5075401;28;20217;-66